METAR Data
IDs: Format: Raw Decoded Include TAF

Data at: 1922 UTC 07 Dec 2021

METAR for:KALS (Alamosa/Bergman Fld, CO, US)
Text:KALS 071852Z AUTO 09004KT 10SM OVC060 06/M04 A3000 RMK AO2 SLP141 T00561039
Temperature: 5.6°C ( 42°F)
Dewpoint: -3.9°C ( 25°F) [RH = 50%]
Pressure (altimeter):30.00 inches Hg (1016.0 mb) [Sea level pressure: 1014.1 mb]
Winds:from the E (90 degrees) at 5 MPH (4 knots; 2.1 m/s)
Visibility:10 or more sm (16+ km)
Ceiling:6000 feet AGL
Clouds: overcast cloud deck at 6000 feet AGL
QC Flag:automated observation with no human augmentation